Time;durP1;ratioP1;P1;durP2;ratioP2;P2;SDS_P1;SDS_P2;PMS_P1;PMS_P2;Temp;Humidity;BMP_temperature;BMP_pressure;BME280_temperature;BME280_humidity;BME280_pressure;Samples;Min_cycle;Max_cycle;Signal;HPM_P1;HPM_P2
2022/06/23 00:00:50;;;;;;;;;;;;;;;;;;10453325;28;19933;-62
2022/06/23 00:05:52;;;;;;;;;;;;;;;;;;10422952;28;19929;-63
2022/06/23 00:10:54;;;;;;;;;;;;;;;;;;10423819;28;19925;-63
2022/06/23 00:15:57;;;;;;;;;;;;;;;;;;10422639;28;19925;-63
2022/06/23 00:20:59;;;;;;;;;;;;;;;;;;10422435;28;19925;-62
2022/06/23 00:26:01;;;;;;;;;;;;;;;;;;10422207;28;20015;-63
2022/06/23 00:31:03;;;;;;;;;;;;;;;;;;10421996;28;19925;-63
2022/06/23 00:36:05;;;;;;;;;;;;;;;;;;10421018;28;20269;-63
2022/06/23 00:41:07;;;;;;;;;;;;;;;;;;10420967;28;19932;-64
2022/06/23 00:46:09;;;;;;;;;;;;;;;;;;10421410;28;19925;-63
2022/06/23 00:51:12;;;;;;;;;;;;;;;;;;10421260;28;19929;-63
2022/06/23 00:56:14;;;;;;;;;;;;;;;;;;10422146;28;19964;-63
2022/06/23 01:01:16;;;;;;;;;;;;;;;;;;10420274;28;19932;-63
2022/06/23 01:06:18;;;;;;;;;;;;;;;;;;10420086;28;19964;-63
2022/06/23 01:11:20;;;;;;;;;;;;;;;;;;10420385;28;19932;-63
2022/06/23 01:16:22;;;;;;;;;;;;;;;;;;10420292;28;19936;-62
2022/06/23 01:21:24;;;;;;;;;;;;;;;;;;10418303;28;19995;-63
2022/06/23 01:26:26;;;;;;;;;;;;;;;;;;10449904;28;19925;-62
2022/06/23 01:31:28;;;;;;;;;;;;;;;;;;10458587;28;19925;-62
2022/06/23 01:36:31;;;;;;;;;;;;;;;;;;10460028;28;19925;-62
2022/06/23 01:41:33;;;;;;;;;;;;;;;;;;10460222;28;19925;-62
2022/06/23 01:46:35;;;;;;;;;;;;;;;;;;10459223;28;19925;-63
2022/06/23 01:51:37;;;;;;;;;;;;;;;;;;10429687;28;19925;-63
2022/06/23 01:56:39;;;;;;;;;;;;;;;;;;10418258;28;19932;-62
2022/06/23 02:01:41;;;;;;;;;;;;;;;;;;10417916;28;20111;-63
2022/06/23 02:06:43;;;;;;;;;;;;;;;;;;10418725;28;19925;-62
2022/06/23 02:11:45;;;;;;;;;;;;;;;;;;10381416;28;19932;-62
2022/06/23 02:16:48;;;;;;;;;;;;;;;;;;10417821;28;20385;-62
2022/06/23 02:21:50;;;;;;;;;;;;;;;;;;10459157;28;19971;-62
2022/06/23 02:26:52;;;;;;;;;;;;;;;;;;10455888;28;20402;-62
2022/06/23 02:31:54;;;;;;;;;;;;;;;;;;10458519;28;19925;-62
2022/06/23 02:36:56;;;;;;;;;;;;;;;;;;10430744;28;19925;-62
2022/06/23 02:41:59;;;;;;;;;;;;;;;;;;10416377;28;20011;-62
2022/06/23 02:47:01;;;;;;;;;;;;;;;;;;10418064;28;19925;-62
2022/06/23 02:52:03;;;;;;;;;;;;;;;;;;10416617;28;19933;-62
2022/06/23 02:57:05;;;;;;;;;;;;;;;;;;10416579;28;19957;-63
2022/06/23 03:02:07;;;;;;;;;;;;;;;;;;10415749;28;19932;-62
2022/06/23 03:07:09;;;;;;;;;;;;;;;;;;10415926;28;20403;-63
2022/06/23 03:12:11;;;;;;;;;;;;;;;;;;10416092;28;19925;-62
2022/06/23 03:17:13;;;;;;;;;;;;;;;;;;10436662;28;20391;-62
2022/06/23 03:22:15;;;;;;;;;;;;;;;;;;10457309;28;19931;-63
2022/06/23 03:27:17;;;;;;;;;;;;;;;;;;10455402;28;19931;-63
2022/06/23 03:32:19;;;;;;;;;;;;;;;;;;10456068;28;20265;-62
2022/06/23 03:37:22;;;;;;;;;;;;;;;;;;10455083;28;19929;-62
2022/06/23 03:42:28;;;;;;;;;;;;;;;;;;10447304;28;19989;-63
2022/06/23 03:47:30;;;;;;;;;;;;;;;;;;10437347;28;20012;-62
2022/06/23 03:52:33;;;;;;;;;;;;;;;;;;10456561;28;19929;-62
2022/06/23 03:57:35;;;;;;;;;;;;;;;;;;10455923;28;19932;-62
2022/06/23 04:02:37;;;;;;;;;;;;;;;;;;10454962;28;19932;-63
2022/06/23 04:07:39;;;;;;;;;;;;;;;;;;10454603;28;20016;-63
2022/06/23 04:12:42;;;;;;;;;;;;;;;;;;10454971;28;19990;-62
2022/06/23 04:17:44;;;;;;;;;;;;;;;;;;10414282;28;19926;-62
2022/06/23 04:22:46;;;;;;;;;;;;;;;;;;10421360;28;20284;-62
2022/06/23 04:27:48;;;;;;;;;;;;;;;;;;10423273;28;19925;-62
2022/06/23 04:32:50;;;;;;;;;;;;;;;;;;10421657;28;19932;-62
2022/06/23 04:37:54;;;;;;;;;;;;;;;;;;10421823;28;19933;-62
2022/06/23 04:42:57;;;;;;;;;;;;;;;;;;10422923;28;20293;-62
2022/06/23 04:47:59;;;;;;;;;;;;;;;;;;10450791;28;19932;-63
2022/06/23 04:53:01;;;;;;;;;;;;;;;;;;10421132;28;19925;-62
2022/06/23 04:58:03;;;;;;;;;;;;;;;;;;10420386;28;20376;-62
2022/06/23 05:03:05;;;;;;;;;;;;;;;;;;10420169;28;19925;-62
2022/06/23 05:08:08;;;;;;;;;;;;;;;;;;10421040;28;20390;-62
2022/06/23 05:13:10;;;;;;;;;;;;;;;;;;10440470;28;19932;-62
2022/06/23 05:18:12;;;;;;;;;;;;;;;;;;10461451;28;19924;-63
2022/06/23 05:23:14;;;;;;;;;;;;;;;;;;10460601;28;20291;-62
2022/06/23 05:28:21;;;;;;;;;;;;;;;;;;10459725;28;19929;-62
2022/06/23 05:33:23;;;;;;;;;;;;;;;;;;10459911;28;19925;-62
2022/06/23 05:38:26;;;;;;;;;;;;;;;;;;10460025;28;19925;-62
2022/06/23 05:43:28;;;;;;;;;;;;;;;;;;10458837;28;19925;-63
2022/06/23 05:48:30;;;;;;;;;;;;;;;;;;10456869;28;19925;-63
2022/06/23 05:53:32;;;;;;;;;;;;;;;;;;10460026;28;19932;-63
2022/06/23 05:58:35;;;;;;;;;;;;;;;;;;10458055;28;19925;-63
2022/06/23 06:03:38;;;;;;;;;;;;;;;;;;10459683;28;19924;-62
2022/06/23 06:09:35;;;;;;;;;;;;;;;;;;10426449;28;19932;-62
2022/06/23 06:14:02;;;;;;;;;;;;;;;;;;10417391;28;19929;-62
2022/06/23 06:19:05;;;;;;;;;;;;;;;;;;10417866;28;19931;-62
2022/06/23 06:24:07;;;;;;;;;;;;;;;;;;10418805;28;19925;-62
2022/06/23 06:29:09;;;;;;;;;;;;;;;;;;10419012;28;19932;-62
2022/06/23 06:34:11;;;;;;;;;;;;;;;;;;10416750;28;19926;-62
2022/06/23 06:39:13;;;;;;;;;;;;;;;;;;10417202;28;19929;-62
2022/06/23 06:44:15;;;;;;;;;;;;;;;;;;10416230;28;20277;-63
2022/06/23 06:49:18;;;;;;;;;;;;;;;;;;10417268;28;19925;-62
2022/06/23 06:54:20;;;;;;;;;;;;;;;;;;10416514;28;19925;-62
2022/06/23 06:59:22;;;;;;;;;;;;;;;;;;10416930;28;19929;-62
2022/06/23 07:04:24;;;;;;;;;;;;;;;;;;10416801;28;20281;-63
2022/06/23 07:09:26;;;;;;;;;;;;;;;;;;10415478;28;20324;-63
2022/06/23 07:14:31;;;;;;;;;;;;;;;;;;10415879;28;19933;-62
2022/06/23 07:19:33;;;;;;;;;;;;;;;;;;10448190;28;19935;-62
2022/06/23 07:24:35;;;;;;;;;;;;;;;;;;10454933;28;19925;-63
2022/06/23 07:29:37;;;;;;;;;;;;;;;;;;10456301;28;20261;-62
2022/06/23 07:34:39;;;;;;;;;;;;;;;;;;10455846;28;19925;-62
2022/06/23 07:39:41;;;;;;;;;;;;;;;;;;10416374;28;19932;-63
2022/06/23 07:44:43;;;;;;;;;;;;;;;;;;10438257;28;19936;-62
2022/06/23 07:49:45;;;;;;;;;;;;;;;;;;10414615;28;20376;-63
2022/06/23 07:54:49;;;;;;;;;;;;;;;;;;10417428;28;19925;-64
2022/06/23 07:59:51;;;;;;;;;;;;;;;;;;10424070;28;19925;-66
2022/06/23 08:04:54;;;;;;;;;;;;;;;;;;10435737;28;19929;-65
2022/06/23 08:09:59;;;;;;;;;;;;;;;;;;10422838;28;19964;-65
2022/06/23 08:20:22;;;;;;;;;;;;;;;;;;10423433;28;19935;-64
2022/06/23 08:25:24;;;;;;;;;;;;;;;;;;10422327;28;19935;-65
2022/06/23 08:30:26;;;;;;;;;;;;;;;;;;10422139;28;19931;-65
2022/06/23 08:35:28;;;;;;;;;;;;;;;;;;10427228;28;19925;-65
2022/06/23 08:40:30;;;;;;;;;;;;;;;;;;10452852;28;19925;-65
2022/06/23 08:45:32;;;;;;;;;;;;;;;;;;10421592;28;19932;-66
2022/06/23 08:50:34;;;;;;;;;;;;;;;;;;10422063;28;19930;-65
2022/06/23 08:55:36;;;;;;;;;;;;;;;;;;10428182;28;20042;-66
2022/06/23 09:00:55;;;;;;;;;;;;;;;;;;10460191;28;19929;-66
2022/06/23 09:05:57;;;;;;;;;;;;;;;;;;10460104;28;19925;-66
2022/06/23 09:10:59;;;;;;;;;;;;;;;;;;10436233;28;19925;-66
2022/06/23 09:16:01;;;;;;;;;;;;;;;;;;10423533;28;19940;-66
2022/06/23 09:21:03;;;;;;;;;;;;;;;;;;10426404;28;20296;-66
2022/06/23 09:26:25;;;;;;;;;;;;;;;;;;10447611;28;19925;-66
2022/06/23 09:31:27;;;;;;;;;;;;;;;;;;10419233;28;19932;-66
2022/06/23 09:36:29;;;;;;;;;;;;;;;;;;10447076;28;19955;-66
2022/06/23 09:41:31;;;;;;;;;;;;;;;;;;10426343;28;19925;-66
2022/06/23 09:46:33;;;;;;;;;;;;;;;;;;10419245;28;20031;-66
2022/06/23 09:51:35;;;;;;;;;;;;;;;;;;10418439;28;19948;-66
2022/06/23 09:56:37;;;;;;;;;;;;;;;;;;10419910;28;19932;-66
2022/06/23 10:01:39;;;;;;;;;;;;;;;;;;10419699;28;19955;-66
2022/06/23 10:06:42;;;;;;;;;;;;;;;;;;10419464;28;20007;-66
2022/06/23 10:11:44;;;;;;;;;;;;;;;;;;10417709;28;20307;-66
2022/06/23 10:16:47;;;;;;;;;;;;;;;;;;10416400;28;19925;-67
2022/06/23 10:21:49;;;;;;;;;;;;;;;;;;10429466;28;20019;-67
2022/06/23 10:26:51;;;;;;;;;;;;;;;;;;10449685;22;19925;-64
2022/06/23 10:31:53;;;;;;;;;;;;;;;;;;10417626;28;19925;-64
2022/06/23 10:36:55;;;;;;;;;;;;;;;;;;10421883;28;19929;-64
2022/06/23 10:41:57;;;;;;;;;;;;;;;;;;10455550;28;20375;-64
2022/06/23 10:46:59;;;;;;;;;;;;;;;;;;10458326;28;19931;-64
2022/06/23 10:52:01;;;;;;;;;;;;;;;;;;10437214;28;19925;-64
2022/06/23 10:57:03;;;;;;;;;;;;;;;;;;10417051;28;19931;-64
2022/06/23 11:02:10;;;;;;;;;;;;;;;;;;10433684;28;20406;-64
2022/06/23 11:07:13;;;;;;;;;;;;;;;;;;10446600;28;19971;-64
2022/06/23 11:12:15;;;;;;;;;;;;;;;;;;10426028;28;19929;-64
2022/06/23 11:17:17;;;;;;;;;;;;;;;;;;10456734;28;19925;-64
2022/06/23 11:22:19;;;;;;;;;;;;;;;;;;10456630;28;19925;-64
2022/06/23 11:27:21;;;;;;;;;;;;;;;;;;10456939;28;19931;-64
2022/06/23 11:32:23;;;;;;;;;;;;;;;;;;10464566;28;19925;-64
2022/06/23 11:37:25;;;;;;;;;;;;;;;;;;10465547;28;19935;-64
2022/06/23 11:42:28;;;;;;;;;;;;;;;;;;10465358;28;19974;-64
2022/06/23 11:47:30;;;;;;;;;;;;;;;;;;10463962;28;19925;-64
2022/06/23 11:52:32;;;;;;;;;;;;;;;;;;10464290;28;20287;-65
2022/06/23 11:57:35;;;;;;;;;;;;;;;;;;10464734;28;19925;-65
2022/06/23 12:02:37;;;;;;;;;;;;;;;;;;10463903;28;20303;-65
2022/06/23 12:07:39;;;;;;;;;;;;;;;;;;10464384;28;19932;-64
2022/06/23 12:12:41;;;;;;;;;;;;;;;;;;10464013;28;19971;-64
2022/06/23 12:17:43;;;;;;;;;;;;;;;;;;10463343;28;19925;-64
2022/06/23 12:22:45;;;;;;;;;;;;;;;;;;10463189;28;20405;-64
2022/06/23 12:27:47;;;;;;;;;;;;;;;;;;10462883;28;19946;-65
2022/06/23 12:32:49;;;;;;;;;;;;;;;;;;10462182;28;19931;-64
2022/06/23 12:37:51;;;;;;;;;;;;;;;;;;10463344;28;20016;-64
2022/06/23 12:42:53;;;;;;;;;;;;;;;;;;10462749;28;19924;-64
2022/06/23 12:47:56;;;;;;;;;;;;;;;;;;10462206;28;20380;-64
2022/06/23 12:52:58;;;;;;;;;;;;;;;;;;10461946;28;19925;-64
2022/06/23 12:58:00;;;;;;;;;;;;;;;;;;10462483;28;19932;-65
2022/06/23 13:03:03;;;;;;;;;;;;;;;;;;10461610;28;19924;-64
2022/06/23 13:08:05;;;;;;;;;;;;;;;;;;10461447;28;19935;-65
2022/06/23 13:13:08;;;;;;;;;;;;;;;;;;10461164;28;19924;-65
2022/06/23 13:18:10;;;;;;;;;;;;;;;;;;10461668;28;19931;-65
2022/06/23 13:23:12;;;;;;;;;;;;;;;;;;10461484;28;19924;-65
2022/06/23 13:28:14;;;;;;;;;;;;;;;;;;10460954;28;19931;-65
2022/06/23 13:33:16;;;;;;;;;;;;;;;;;;10461013;28;19925;-65
2022/06/23 13:38:18;;;;;;;;;;;;;;;;;;10461589;28;19936;-65
2022/06/23 13:43:20;;;;;;;;;;;;;;;;;;10460003;28;19925;-65
2022/06/23 13:48:26;;;;;;;;;;;;;;;;;;10460480;28;19924;-65
2022/06/23 13:53:28;;;;;;;;;;;;;;;;;;10458844;28;20399;-65
2022/06/23 13:58:30;;;;;;;;;;;;;;;;;;10460057;28;19932;-65
2022/06/23 14:03:32;;;;;;;;;;;;;;;;;;10459811;28;19932;-65
2022/06/23 14:08:34;;;;;;;;;;;;;;;;;;10459064;28;19925;-66
2022/06/23 14:13:36;;;;;;;;;;;;;;;;;;10459449;28;19932;-66
2022/06/23 14:18:38;;;;;;;;;;;;;;;;;;10458639;28;19924;-65
2022/06/23 14:23:42;;;;;;;;;;;;;;;;;;10459114;28;19924;-64
2022/06/23 14:28:44;;;;;;;;;;;;;;;;;;10458212;28;19925;-64
2022/06/23 14:33:46;;;;;;;;;;;;;;;;;;10458818;28;19932;-64
2022/06/23 14:38:48;;;;;;;;;;;;;;;;;;10458062;28;20360;-64
2022/06/23 14:43:51;;;;;;;;;;;;;;;;;;10457973;28;20364;-64
2022/06/23 14:48:54;;;;;;;;;;;;;;;;;;10458379;28;19925;-64
2022/06/23 14:53:56;;;;;;;;;;;;;;;;;;10458076;28;19936;-64
2022/06/23 14:58:58;;;;;;;;;;;;;;;;;;10457969;28;19925;-65
2022/06/23 15:04:00;;;;;;;;;;;;;;;;;;10457148;28;20303;-65
2022/06/23 15:09:02;;;;;;;;;;;;;;;;;;10457772;28;19931;-65
2022/06/23 15:14:04;;;;;;;;;;;;;;;;;;10455748;28;20283;-65
2022/06/23 15:19:06;;;;;;;;;;;;;;;;;;10457453;28;19929;-65
2022/06/23 15:24:08;;;;;;;;;;;;;;;;;;10456769;28;19932;-65
2022/06/23 15:29:10;;;;;;;;;;;;;;;;;;10456229;28;19925;-64
2022/06/23 15:34:13;;;;;;;;;;;;;;;;;;10456564;28;19924;-65
2022/06/23 15:39:15;;;;;;;;;;;;;;;;;;10456976;28;19924;-62
2022/06/23 15:44:17;;;;;;;;;;;;;;;;;;10456866;28;19935;-64
2022/06/23 15:49:19;;;;;;;;;;;;;;;;;;10456727;28;19940;-67
2022/06/23 15:54:21;;;;;;;;;;;;;;;;;;10455919;28;19954;-65
2022/06/23 15:59:23;;;;;;;;;;;;;;;;;;10456535;28;19931;-67
2022/06/23 16:04:25;;;;;;;;;;;;;;;;;;10423561;28;19933;-68
2022/06/23 16:09:27;;;;;;;;;;;;;;;;;;10416075;28;19936;-67
2022/06/23 16:14:29;;;;;;;;;;;;;;;;;;10416873;28;19932;-66
2022/06/23 16:19:31;;;;;;;;;;;;;;;;;;10460899;28;19932;-66
2022/06/23 16:24:33;;;;;;;;;;;;;;;;;;10459563;28;20287;-66
2022/06/23 16:29:37;;;;;;;;;;;;;;;;;;10421087;28;19936;-65
2022/06/23 16:34:39;;;;;;;;;;;;;;;;;;10426186;28;19932;-65
2022/06/23 16:39:41;;;;;;;;;;;;;;;;;;10423101;28;19925;-66
2022/06/23 16:44:43;;;;;;;;;;;;;;;;;;10422228;28;19925;-66
2022/06/23 16:49:45;;;;;;;;;;;;;;;;;;10420961;28;19925;-65
2022/06/23 16:54:48;;;;;;;;;;;;;;;;;;10436138;28;19925;-66
2022/06/23 16:59:50;;;;;;;;;;;;;;;;;;10459139;28;19924;-66
2022/06/23 17:04:52;;;;;;;;;;;;;;;;;;10422395;28;19948;-66
2022/06/23 17:09:54;;;;;;;;;;;;;;;;;;10419914;28;19931;-66
2022/06/23 17:14:56;;;;;;;;;;;;;;;;;;10423202;28;19940;-66
2022/06/23 17:19:59;;;;;;;;;;;;;;;;;;10421467;28;19926;-66
2022/06/23 17:25:01;;;;;;;;;;;;;;;;;;10419524;28;20303;-66
2022/06/23 17:30:03;;;;;;;;;;;;;;;;;;10418166;28;20012;-66
2022/06/23 17:35:05;;;;;;;;;;;;;;;;;;10424238;28;19925;-66
2022/06/23 17:45:28;;;;;;;;;;;;;;;;;;10419339;28;19932;-66
2022/06/23 17:50:30;;;;;;;;;;;;;;;;;;10419199;28;19932;-66
2022/06/23 17:55:32;;;;;;;;;;;;;;;;;;10436148;28;19925;-66
2022/06/23 18:00:35;;;;;;;;;;;;;;;;;;10419992;28;19925;-66
2022/06/23 18:05:39;;;;;;;;;;;;;;;;;;10440612;28;20316;-65
2022/06/23 18:10:41;;;;;;;;;;;;;;;;;;10459638;28;19924;-65
2022/06/23 18:15:43;;;;;;;;;;;;;;;;;;10456768;28;20376;-65
2022/06/23 18:20:45;;;;;;;;;;;;;;;;;;10457188;28;19925;-65
2022/06/23 18:25:47;;;;;;;;;;;;;;;;;;10430972;28;19929;-64
2022/06/23 18:30:49;;;;;;;;;;;;;;;;;;10415466;28;20292;-64
2022/06/23 18:35:51;;;;;;;;;;;;;;;;;;10427610;28;19971;-65
2022/06/23 18:40:54;;;;;;;;;;;;;;;;;;10414604;28;19932;-65
2022/06/23 18:45:56;;;;;;;;;;;;;;;;;;10431581;28;19932;-63
2022/06/23 18:50:58;;;;;;;;;;;;;;;;;;10442294;28;19936;-64
2022/06/23 18:56:00;;;;;;;;;;;;;;;;;;10414343;28;19995;-65
2022/06/23 19:01:09;;;;;;;;;;;;;;;;;;10427044;28;19925;-65
2022/06/23 19:06:11;;;;;;;;;;;;;;;;;;10433942;28;20318;-65
2022/06/23 19:11:13;;;;;;;;;;;;;;;;;;10454303;28;19925;-66
2022/06/23 19:16:15;;;;;;;;;;;;;;;;;;10445670;28;19925;-62
2022/06/23 19:21:17;;;;;;;;;;;;;;;;;;10426320;28;20019;-63
2022/06/23 19:26:20;;;;;;;;;;;;;;;;;;10448306;28;19924;-62
2022/06/23 19:31:22;;;;;;;;;;;;;;;;;;10392663;28;1786194;-62
2022/06/23 19:36:26;;;;;;;;;;;;;;;;;;10456426;28;20430;-62
2022/06/23 19:41:28;;;;;;;;;;;;;;;;;;10454680;28;20392;-62
2022/06/23 19:46:30;;;;;;;;;;;;;;;;;;10454033;28;19939;-63
2022/06/23 19:51:32;;;;;;;;;;;;;;;;;;10459519;28;20004;-64
2022/06/23 19:56:34;;;;;;;;;;;;;;;;;;10464971;28;19925;-64
2022/06/23 20:01:47;;;;;;;;;;;;;;;;;;10464217;28;19947;-65
2022/06/23 20:06:51;;;;;;;;;;;;;;;;;;10462929;28;19925;-63
2022/06/23 20:11:53;;;;;;;;;;;;;;;;;;10464432;28;19935;-63
2022/06/23 20:16:55;;;;;;;;;;;;;;;;;;10458829;28;19925;-62
2022/06/23 20:21:57;;;;;;;;;;;;;;;;;;10423884;28;19929;-62
2022/06/23 20:27:00;;;;;;;;;;;;;;;;;;10421738;28;19925;-62
2022/06/23 20:32:02;;;;;;;;;;;;;;;;;;10421816;28;19926;-62
2022/06/23 20:37:04;;;;;;;;;;;;;;;;;;10423218;28;19929;-63
2022/06/23 20:42:07;;;;;;;;;;;;;;;;;;10422432;28;20000;-62
2022/06/23 20:47:10;;;;;;;;;;;;;;;;;;10444454;28;19924;-63
2022/06/23 20:52:12;;;;;;;;;;;;;;;;;;10461047;28;19931;-62
2022/06/23 20:57:14;;;;;;;;;;;;;;;;;;10421240;28;19925;-63
2022/06/23 21:02:16;;;;;;;;;;;;;;;;;;10432612;28;19924;-64
2022/06/23 21:07:20;;;;;;;;;;;;;;;;;;10462262;28;19936;-64
2022/06/23 21:12:22;;;;;;;;;;;;;;;;;;10462077;28;19932;-64
2022/06/23 21:17:24;;;;;;;;;;;;;;;;;;10460997;28;19925;-64
2022/06/23 21:22:26;;;;;;;;;;;;;;;;;;10459362;28;20033;-64
2022/06/23 21:27:28;;;;;;;;;;;;;;;;;;10460000;28;19929;-64
2022/06/23 21:32:30;;;;;;;;;;;;;;;;;;10461259;28;19924;-64
2022/06/23 21:37:33;;;;;;;;;;;;;;;;;;10460707;28;19924;-64
2022/06/23 21:42:37;;;;;;;;;;;;;;;;;;10444165;28;19929;-64
2022/06/23 21:47:39;;;;;;;;;;;;;;;;;;10418785;28;20387;-64
2022/06/23 21:52:41;;;;;;;;;;;;;;;;;;10419221;28;19925;-64
2022/06/23 21:57:43;;;;;;;;;;;;;;;;;;10418895;28;19925;-64
2022/06/23 22:02:45;;;;;;;;;;;;;;;;;;10418123;28;19926;-63
2022/06/23 22:07:47;;;;;;;;;;;;;;;;;;10417991;28;20437;-63
2022/06/23 22:12:57;;;;;;;;;;;;;;;;;;10417540;28;19925;-63
2022/06/23 22:17:59;;;;;;;;;;;;;;;;;;10417527;28;20424;-63
2022/06/23 22:23:03;;;;;;;;;;;;;;;;;;10419131;28;19925;-63
2022/06/23 22:28:05;;;;;;;;;;;;;;;;;;10417139;28;20288;-63
2022/06/23 22:33:07;;;;;;;;;;;;;;;;;;10417678;28;19932;-61
2022/06/23 22:38:09;;;;;;;;;;;;;;;;;;10438099;28;20376;-61
2022/06/23 22:43:11;;;;;;;;;;;;;;;;;;10451610;23;19925;-67
2022/06/23 22:48:13;;;;;;;;;;;;;;;;;;10416564;28;20364;-69
2022/06/23 22:53:15;;;;;;;;;;;;;;;;;;10417041;28;19932;-67
2022/06/23 22:58:17;;;;;;;;;;;;;;;;;;10416168;28;19926;-69
2022/06/23 23:03:20;;;;;;;;;;;;;;;;;;10437355;28;19936;-70
2022/06/23 23:08:22;;;;;;;;;;;;;;;;;;10418065;28;20015;-70
2022/06/23 23:13:24;;;;;;;;;;;;;;;;;;10416661;28;19925;-72
2022/06/23 23:18:26;;;;;;;;;;;;;;;;;;10417239;28;19925;-72
2022/06/23 23:23:28;;;;;;;;;;;;;;;;;;10456479;28;19931;-72
2022/06/23 23:28:30;;;;;;;;;;;;;;;;;;10456132;28;20386;-69
2022/06/23 23:33:32;;;;;;;;;;;;;;;;;;10455929;28;20376;-69
2022/06/23 23:38:34;;;;;;;;;;;;;;;;;;10455893;28;19931;-69
2022/06/23 23:43:38;;;;;;;;;;;;;;;;;;10455694;28;19999;-72
2022/06/23 23:48:40;;;;;;;;;;;;;;;;;;10457171;28;19928;-72
2022/06/23 23:53:42;;;;;;;;;;;;;;;;;;10457083;28;19932;-72
2022/06/23 23:58:44;;;;;;;;;;;;;;;;;;10456049;28;20288;-71
